sensor_id;sensor_type;location;lat;lon;timestamp;pressure;altitude;pressure_sealevel;temperature;humidity
63694;BME280;49839;51.798;10.954;2023-05-11T00:01:09;98851.09;;;13.79;nan
63694;BME280;49839;51.798;10.954;2023-05-11T00:03:37;98853.63;;;13.80;nan
63694;BME280;49839;51.798;10.954;2023-05-11T00:06:05;98847.69;;;13.77;nan
63694;BME280;49839;51.798;10.954;2023-05-11T00:08:32;98845.88;;;13.77;nan
63694;BME280;49839;51.798;10.954;2023-05-11T00:11:00;98846.72;;;13.78;nan
63694;BME280;49839;51.798;10.954;2023-05-11T00:13:28;98844.94;;;13.78;nan
63694;BME280;49839;51.798;10.954;2023-05-11T00:15:55;98846.50;;;13.81;nan
63694;BME280;49839;51.798;10.954;2023-05-11T00:18:24;98845.56;;;13.82;nan
63694;BME280;49839;51.798;10.954;2023-05-11T00:20:52;98843.03;;;13.80;nan
63694;BME280;49839;51.798;10.954;2023-05-11T00:23:20;98844.00;;;13.79;nan
63694;BME280;49839;51.798;10.954;2023-05-11T00:25:47;98841.34;;;13.79;nan
63694;BME280;49839;51.798;10.954;2023-05-11T00:28:15;98842.19;;;13.80;nan
63694;BME280;49839;51.798;10.954;2023-05-11T00:30:43;98843.16;;;13.79;nan
63694;BME280;49839;51.798;10.954;2023-05-11T00:33:10;98837.94;;;13.77;nan
63694;BME280;49839;51.798;10.954;2023-05-11T00:35:39;98837.09;;;13.77;nan
63694;BME280;49839;51.798;10.954;2023-05-11T00:38:08;98829.16;;;13.77;nan
63694;BME280;49839;51.798;10.954;2023-05-11T00:40:36;98836.25;;;13.76;nan
63694;BME280;49839;51.798;10.954;2023-05-11T00:43:03;98838.16;;;13.74;nan
63694;BME280;49839;51.798;10.954;2023-05-11T00:45:31;98834.78;;;13.72;nan
63694;BME280;49839;51.798;10.954;2023-05-11T00:47:59;98834.78;;;13.72;nan
63694;BME280;49839;51.798;10.954;2023-05-11T00:50:27;98834.88;;;13.71;nan
63694;BME280;49839;51.798;10.954;2023-05-11T00:52:56;98837.75;;;13.68;nan
63694;BME280;49839;51.798;10.954;2023-05-11T00:55:25;98832.69;;;13.65;nan
63694;BME280;49839;51.798;10.954;2023-05-11T00:57:53;98841.56;;;13.64;nan
63694;BME280;49839;51.798;10.954;2023-05-11T01:00:21;98837.03;;;13.66;nan
63694;BME280;49839;51.798;10.954;2023-05-11T01:02:49;98839.03;;;13.62;nan
63694;BME280;49839;51.798;10.954;2023-05-11T01:05:17;98840.97;;;13.60;nan
63694;BME280;49839;51.798;10.954;2023-05-11T01:07:50;98839.47;;;13.56;nan
63694;BME280;49839;51.798;10.954;2023-05-11T01:10:28;98842.25;;;13.54;nan
63694;BME280;49839;51.798;10.954;2023-05-11T01:13:08;98844.78;;;13.56;nan
63694;BME280;49839;51.798;10.954;2023-05-11T01:15:43;98847.44;;;13.56;nan
63694;BME280;49839;51.798;10.954;2023-05-11T01:18:16;98839.47;;;13.56;nan
63694;BME280;49839;51.798;10.954;2023-05-11T01:20:47;98840.31;;;13.57;nan
63694;BME280;49839;51.798;10.954;2023-05-11T01:23:41;98843.94;;;13.55;nan
63694;BME280;49839;51.798;10.954;2023-05-11T01:26:34;98841.28;;;13.55;nan
63694;BME280;49839;51.798;10.954;2023-05-11T01:32:09;98846.91;;;13.51;nan
63694;BME280;49839;51.798;10.954;2023-05-11T01:34:42;98844.38;;;13.49;nan
63694;BME280;49839;51.798;10.954;2023-05-11T01:37:14;98851.47;;;13.49;nan
63694;BME280;49839;51.798;10.954;2023-05-11T01:39:49;98856.03;;;13.47;nan
63694;BME280;49839;51.798;10.954;2023-05-11T01:42:20;98853.38;;;13.47;nan
63694;BME280;49839;51.798;10.954;2023-05-11T01:44:52;98851.59;;;13.47;nan
63694;BME280;49839;51.798;10.954;2023-05-11T01:47:22;98849.66;;;13.49;nan
63694;BME280;49839;51.798;10.954;2023-05-11T01:49:52;98858.44;;;13.50;nan
63694;BME280;49839;51.798;10.954;2023-05-11T01:52:23;98860.25;;;13.49;nan
63694;BME280;49839;51.798;10.954;2023-05-11T01:54:53;98856.75;;;13.49;nan
63694;BME280;49839;51.798;10.954;2023-05-11T01:57:22;98855.19;;;13.46;nan
63694;BME280;49839;51.798;10.954;2023-05-11T01:59:51;98862.38;;;13.44;nan
63694;BME280;49839;51.798;10.954;2023-05-11T02:02:21;98858.03;;;13.43;nan
63694;BME280;49839;51.798;10.954;2023-05-11T02:04:50;98859.72;;;13.44;nan
63694;BME280;49839;51.798;10.954;2023-05-11T02:07:20;98861.41;;;13.45;nan
63694;BME280;49839;51.798;10.954;2023-05-11T02:09:50;98857.84;;;13.46;nan
63694;BME280;49839;51.798;10.954;2023-05-11T02:12:19;98861.41;;;13.45;nan
63694;BME280;49839;51.798;10.954;2023-05-11T02:14:49;98860.69;;;13.43;nan
63694;BME280;49839;51.798;10.954;2023-05-11T02:17:21;98859.19;;;13.39;nan
63694;BME280;49839;51.798;10.954;2023-05-11T02:19:51;98860.38;;;13.35;nan
63694;BME280;49839;51.798;10.954;2023-05-11T02:22:21;98859.13;;;13.28;nan
63694;BME280;49839;51.798;10.954;2023-05-11T02:24:49;98856.06;;;13.21;nan
63694;BME280;49839;51.798;10.954;2023-05-11T02:27:17;98854.66;;;13.16;nan
63694;BME280;49839;51.798;10.954;2023-05-11T02:29:44;98857.59;;;13.11;nan
63694;BME280;49839;51.798;10.954;2023-05-11T02:32:16;98861.53;;;13.06;nan
63694;BME280;49839;51.798;10.954;2023-05-11T02:34:49;98855.38;;;13.05;nan
63694;BME280;49839;51.798;10.954;2023-05-11T02:37:23;98858.34;;;13.00;nan
63694;BME280;49839;51.798;10.954;2023-05-11T02:39:57;98860.97;;;13.00;nan
63694;BME280;49839;51.798;10.954;2023-05-11T02:42:26;98859.09;;;13.02;nan
63694;BME280;49839;51.798;10.954;2023-05-11T02:44:58;98861.63;;;13.04;nan
63694;BME280;49839;51.798;10.954;2023-05-11T02:47:30;98863.84;;;12.97;nan
63694;BME280;49839;51.798;10.954;2023-05-11T02:50:01;98860.06;;;13.01;nan
63694;BME280;49839;51.798;10.954;2023-05-11T02:52:33;98867.22;;;12.99;nan
63694;BME280;49839;51.798;10.954;2023-05-11T02:55:02;98863.97;;;12.96;nan
63694;BME280;49839;51.798;10.954;2023-05-11T02:57:30;98860.66;;;12.92;nan
63694;BME280;49839;51.798;10.954;2023-05-11T02:59:59;98867.44;;;12.84;nan
63694;BME280;49839;51.798;10.954;2023-05-11T03:02:29;98860.34;;;12.84;nan
63694;BME280;49839;51.798;10.954;2023-05-11T03:04:58;98856.03;;;12.83;nan
63694;BME280;49839;51.798;10.954;2023-05-11T03:07:27;98859.63;;;12.82;nan
63694;BME280;49839;51.798;10.954;2023-05-11T03:09:55;98867.00;;;12.77;nan
63694;BME280;49839;51.798;10.954;2023-05-11T03:12:23;98859.28;;;12.74;nan
63694;BME280;49839;51.798;10.954;2023-05-11T03:14:52;98859.50;;;12.71;nan
63694;BME280;49839;51.798;10.954;2023-05-11T03:17:21;98862.97;;;12.71;nan
63694;BME280;49839;51.798;10.954;2023-05-11T03:19:48;98860.34;;;12.71;nan
63694;BME280;49839;51.798;10.954;2023-05-11T03:22:17;98858.44;;;12.73;nan
63694;BME280;49839;51.798;10.954;2023-05-11T03:24:47;98862.88;;;12.73;nan
63694;BME280;49839;51.798;10.954;2023-05-11T03:27:16;98856.97;;;12.69;nan
63694;BME280;49839;51.798;10.954;2023-05-11T03:29:44;98866.03;;;12.65;nan
63694;BME280;49839;51.798;10.954;2023-05-11T03:32:13;98865.06;;;12.66;nan
63694;BME280;49839;51.798;10.954;2023-05-11T03:34:41;98858.75;;;12.69;nan
63694;BME280;49839;51.798;10.954;2023-05-11T03:37:09;98865.75;;;12.70;nan
63694;BME280;49839;51.798;10.954;2023-05-11T03:39:40;98860.44;;;12.70;nan
63694;BME280;49839;51.798;10.954;2023-05-11T03:42:12;98861.28;;;12.70;nan
63694;BME280;49839;51.798;10.954;2023-05-11T03:44:42;98865.50;;;12.73;nan
63694;BME280;49839;51.798;10.954;2023-05-11T03:47:11;98862.75;;;12.74;nan
63694;BME280;49839;51.798;10.954;2023-05-11T03:49:40;98861.84;;;12.76;nan
63694;BME280;49839;51.798;10.954;2023-05-11T03:52:08;98851.34;;;12.74;nan
63694;BME280;49839;51.798;10.954;2023-05-11T03:54:36;98858.53;;;12.72;nan
63694;BME280;49839;51.798;10.954;2023-05-11T03:57:04;98848.06;;;12.70;nan
63694;BME280;49839;51.798;10.954;2023-05-11T03:59:33;98855.06;;;12.71;nan
63694;BME280;49839;51.798;10.954;2023-05-11T04:02:02;98852.28;;;12.73;nan
63694;BME280;49839;51.798;10.954;2023-05-11T04:04:37;98854.94;;;12.73;nan
63694;BME280;49839;51.798;10.954;2023-05-11T04:07:05;98856.13;;;12.69;nan
63694;BME280;49839;51.798;10.954;2023-05-11T04:09:32;98850.91;;;12.67;nan
63694;BME280;49839;51.798;10.954;2023-05-11T04:12:00;98852.94;;;12.64;nan
63694;BME280;49839;51.798;10.954;2023-05-11T04:14:28;98852.09;;;12.63;nan
63694;BME280;49839;51.798;10.954;2023-05-11T04:16:56;98852.59;;;12.68;nan
63694;BME280;49839;51.798;10.954;2023-05-11T04:19:24;98854.50;;;12.66;nan
63694;BME280;49839;51.798;10.954;2023-05-11T04:21:52;98851.75;;;12.68;nan
63694;BME280;49839;51.798;10.954;2023-05-11T04:24:20;98855.47;;;12.65;nan
63694;BME280;49839;51.798;10.954;2023-05-11T04:26:47;98851.13;;;12.64;nan
63694;BME280;49839;51.798;10.954;2023-05-11T04:29:15;98853.78;;;12.64;nan
63694;BME280;49839;51.798;10.954;2023-05-11T04:31:42;98856.41;;;12.64;nan
63694;BME280;49839;51.798;10.954;2023-05-11T04:34:11;98856.19;;;12.67;nan
63694;BME280;49839;51.798;10.954;2023-05-11T04:36:39;98856.00;;;12.70;nan
63694;BME280;49839;51.798;10.954;2023-05-11T04:39:07;98858.75;;;12.69;nan
63694;BME280;49839;51.798;10.954;2023-05-11T04:41:35;98861.47;;;12.67;nan
63694;BME280;49839;51.798;10.954;2023-05-11T04:44:03;98855.16;;;12.70;nan
63694;BME280;49839;51.798;10.954;2023-05-11T04:46:30;98862.25;;;12.69;nan
63694;BME280;49839;51.798;10.954;2023-05-11T04:48:58;98862.75;;;12.74;nan
63694;BME280;49839;51.798;10.954;2023-05-11T04:51:27;98865.09;;;12.79;nan
63694;BME280;49839;51.798;10.954;2023-05-11T04:53:55;98861.63;;;12.79;nan
63694;BME280;49839;51.798;10.954;2023-05-11T04:56:22;98865.00;;;12.81;nan
63694;BME280;49839;51.798;10.954;2023-05-11T04:58:50;98869.25;;;12.83;nan
63694;BME280;49839;51.798;10.954;2023-05-11T05:01:17;98872.72;;;12.84;nan
63694;BME280;49839;51.798;10.954;2023-05-11T05:03:47;98867.44;;;12.84;nan
63694;BME280;49839;51.798;10.954;2023-05-11T05:06:15;98867.22;;;12.87;nan
63694;BME280;49839;51.798;10.954;2023-05-11T05:08:44;98869.03;;;12.86;nan
63694;BME280;49839;51.798;10.954;2023-05-11T05:11:12;98870.50;;;12.90;nan
63694;BME280;49839;51.798;10.954;2023-05-11T05:13:39;98869.34;;;12.94;nan
63694;BME280;49839;51.798;10.954;2023-05-11T05:16:07;98871.91;;;12.96;nan
63694;BME280;49839;51.798;10.954;2023-05-11T05:18:35;98866.91;;;12.91;nan
63694;BME280;49839;51.798;10.954;2023-05-11T05:21:02;98868.81;;;12.89;nan
63694;BME280;49839;51.798;10.954;2023-05-11T05:23:31;98872.94;;;12.93;nan
63694;BME280;49839;51.798;10.954;2023-05-11T05:26:00;98873.34;;;13.00;nan
63694;BME280;49839;51.798;10.954;2023-05-11T05:28:27;98875.16;;;12.99;nan
63694;BME280;49839;51.798;10.954;2023-05-11T05:30:55;98874.31;;;12.99;nan
63694;BME280;49839;51.798;10.954;2023-05-11T05:33:22;98877.19;;;12.96;nan
63694;BME280;49839;51.798;10.954;2023-05-11T05:35:50;98882.47;;;12.96;nan
63694;BME280;49839;51.798;10.954;2023-05-11T05:38:18;98878.03;;;12.96;nan
63694;BME280;49839;51.798;10.954;2023-05-11T05:40:46;98882.78;;;12.91;nan
63694;BME280;49839;51.798;10.954;2023-05-11T05:43:15;98881.09;;;12.90;nan
63694;BME280;49839;51.798;10.954;2023-05-11T05:45:43;98885.44;;;12.91;nan
63694;BME280;49839;51.798;10.954;2023-05-11T05:48:10;98888.81;;;12.93;nan
63694;BME280;49839;51.798;10.954;2023-05-11T05:50:38;98887.00;;;12.94;nan
63694;BME280;49839;51.798;10.954;2023-05-11T05:53:05;98888.38;;;12.99;nan
63694;BME280;49839;51.798;10.954;2023-05-11T05:55:33;98892.09;;;12.97;nan
63694;BME280;49839;51.798;10.954;2023-05-11T05:58:01;98893.38;;;12.91;nan
63694;BME280;49839;51.798;10.954;2023-05-11T06:00:30;98895.47;;;12.86;nan
63694;BME280;49839;51.798;10.954;2023-05-11T06:02:57;98895.56;;;12.85;nan
63694;BME280;49839;51.798;10.954;2023-05-11T06:05:25;98898.94;;;12.87;nan
63694;BME280;49839;51.798;10.954;2023-05-11T06:07:53;98898.66;;;12.91;nan
63694;BME280;49839;51.798;10.954;2023-05-11T06:10:35;98896.41;;;12.85;nan
63694;BME280;49839;51.798;10.954;2023-05-11T06:13:03;98897.78;;;12.78;nan
63694;BME280;49839;51.798;10.954;2023-05-11T06:15:32;98899.06;;;12.85;nan
63694;BME280;49839;51.798;10.954;2023-05-11T06:18:00;98899.72;;;12.89;nan
63694;BME280;49839;51.798;10.954;2023-05-11T06:20:28;98894.09;;;12.93;nan
63694;BME280;49839;51.798;10.954;2023-05-11T06:22:55;98886.28;;;12.92;nan
63694;BME280;49839;51.798;10.954;2023-05-11T06:25:23;98893.25;;;12.93;nan
63694;BME280;49839;51.798;10.954;2023-05-11T06:27:50;98892.94;;;12.97;nan
63694;BME280;49839;51.798;10.954;2023-05-11T06:30:18;98880.56;;;12.98;nan
63694;BME280;49839;51.798;10.954;2023-05-11T06:32:47;98894.44;;;13.01;nan
63694;BME280;49839;51.798;10.954;2023-05-11T06:35:15;98892.53;;;13.04;nan
63694;BME280;49839;51.798;10.954;2023-05-11T06:37:43;98893.25;;;13.06;nan
63694;BME280;49839;51.798;10.954;2023-05-11T06:40:11;98883.63;;;13.05;nan
63694;BME280;49839;51.798;10.954;2023-05-11T06:42:42;98891.78;;;13.01;nan
63694;BME280;49839;51.798;10.954;2023-05-11T06:45:10;98887.53;;;12.99;nan
63694;BME280;49839;51.798;10.954;2023-05-11T06:47:37;98888.38;;;12.99;nan
63694;BME280;49839;51.798;10.954;2023-05-11T06:50:07;98893.16;;;13.07;nan
63694;BME280;49839;51.798;10.954;2023-05-11T06:52:35;98888.72;;;13.08;nan
63694;BME280;49839;51.798;10.954;2023-05-11T06:55:03;98888.94;;;13.05;nan
63694;BME280;49839;51.798;10.954;2023-05-11T06:57:31;98892.72;;;13.00;nan
63694;BME280;49839;51.798;10.954;2023-05-11T06:59:58;98891.78;;;13.01;nan
63694;BME280;49839;51.798;10.954;2023-05-11T07:02:26;98897.59;;;13.07;nan
63694;BME280;49839;51.798;10.954;2023-05-11T07:04:53;98894.09;;;13.06;nan
63694;BME280;49839;51.798;10.954;2023-05-11T07:07:23;98891.47;;;13.06;nan
63694;BME280;49839;51.798;10.954;2023-05-11T07:09:51;98893.59;;;13.14;nan
63694;BME280;49839;51.798;10.954;2023-05-11T07:12:18;98894.91;;;13.21;nan
63694;BME280;49839;51.798;10.954;2023-05-11T07:14:46;98902.84;;;13.21;nan
63694;BME280;49839;51.798;10.954;2023-05-11T07:17:13;98893.16;;;13.20;nan
63694;BME280;49839;51.798;10.954;2023-05-11T07:19:41;98893.25;;;13.18;nan
63694;BME280;49839;51.798;10.954;2023-05-11T07:22:09;98894.78;;;13.22;nan
63694;BME280;49839;51.798;10.954;2023-05-11T07:24:40;98893.53;;;13.28;nan
63694;BME280;49839;51.798;10.954;2023-05-11T07:27:08;98891.41;;;13.33;nan
63694;BME280;49839;51.798;10.954;2023-05-11T07:29:36;98894.69;;;13.37;nan
63694;BME280;49839;51.798;10.954;2023-05-11T07:32:04;98901.53;;;13.39;nan
63694;BME280;49839;51.798;10.954;2023-05-11T07:34:35;98896.06;;;13.42;nan
63694;BME280;49839;51.798;10.954;2023-05-11T07:37:03;98903.56;;;13.48;nan
63694;BME280;49839;51.798;10.954;2023-05-11T07:39:30;98903.34;;;13.51;nan
63694;BME280;49839;51.798;10.954;2023-05-11T07:41:59;98900.50;;;13.54;nan
63694;BME280;49839;51.798;10.954;2023-05-11T07:44:27;98901.22;;;13.57;nan
63694;BME280;49839;51.798;10.954;2023-05-11T07:46:55;98898.69;;;13.55;nan
63694;BME280;49839;51.798;10.954;2023-05-11T07:49:23;98900.91;;;13.61;nan
63694;BME280;49839;51.798;10.954;2023-05-11T07:52:08;98899.28;;;13.59;nan
63694;BME280;49839;51.798;10.954;2023-05-11T07:54:35;98908.13;;;13.59;nan
63694;BME280;49839;51.798;10.954;2023-05-11T07:57:05;98903.44;;;13.63;nan
63694;BME280;49839;51.798;10.954;2023-05-11T07:59:33;98912.34;;;13.62;nan
63694;BME280;49839;51.798;10.954;2023-05-11T08:02:00;98900.06;;;13.61;nan
63694;BME280;49839;51.798;10.954;2023-05-11T08:04:28;98893.81;;;13.62;nan
63694;BME280;49839;51.798;10.954;2023-05-11T08:06:56;98905.13;;;13.64;nan
63694;BME280;49839;51.798;10.954;2023-05-11T08:09:24;98904.50;;;13.60;nan
63694;BME280;49839;51.798;10.954;2023-05-11T08:11:51;98902.72;;;13.61;nan
63694;BME280;49839;51.798;10.954;2023-05-11T08:14:24;98904.72;;;13.57;nan
63694;BME280;49839;51.798;10.954;2023-05-11T08:16:52;98910.13;;;13.55;nan
63694;BME280;49839;51.798;10.954;2023-05-11T08:19:20;98911.81;;;13.57;nan
63694;BME280;49839;51.798;10.954;2023-05-11T08:21:47;98914.88;;;13.63;nan
63694;BME280;49839;51.798;10.954;2023-05-11T08:24:15;98910.75;;;13.59;nan
63694;BME280;49839;51.798;10.954;2023-05-11T08:26:43;98910.13;;;13.55;nan
63694;BME280;49839;51.798;10.954;2023-05-11T08:29:11;98913.28;;;13.61;nan
63694;BME280;49839;51.798;10.954;2023-05-11T08:31:40;98917.63;;;13.62;nan
63694;BME280;49839;51.798;10.954;2023-05-11T08:34:07;98907.56;;;13.67;nan
63694;BME280;49839;51.798;10.954;2023-05-11T08:36:44;98911.19;;;13.66;nan
63694;BME280;49839;51.798;10.954;2023-05-11T08:39:12;98916.78;;;13.61;nan
63694;BME280;49839;51.798;10.954;2023-05-11T08:41:48;98916.66;;;13.63;nan
63694;BME280;49839;51.798;10.954;2023-05-11T08:44:16;98918.34;;;13.64;nan
63694;BME280;49839;51.798;10.954;2023-05-11T08:46:47;98921.97;;;13.63;nan
63694;BME280;49839;51.798;10.954;2023-05-11T08:49:31;98918.16;;;13.67;nan
63694;BME280;49839;51.798;10.954;2023-05-11T08:52:03;98925.03;;;13.69;nan
63694;BME280;49839;51.798;10.954;2023-05-11T08:54:33;98921.53;;;13.69;nan
63694;BME280;49839;51.798;10.954;2023-05-11T08:57:01;98918.47;;;13.62;nan
63694;BME280;49839;51.798;10.954;2023-05-11T08:59:31;98910.94;;;13.69;nan
63694;BME280;49839;51.798;10.954;2023-05-11T09:02:01;98919.41;;;13.74;nan
63694;BME280;49839;51.798;10.954;2023-05-11T09:04:32;98919.72;;;13.82;nan
63694;BME280;49839;51.798;10.954;2023-05-11T09:07:00;98919.41;;;13.87;nan
63694;BME280;49839;51.798;10.954;2023-05-11T09:09:28;98913.44;;;13.83;nan
63694;BME280;49839;51.798;10.954;2023-05-11T09:11:56;98915.13;;;13.84;nan
63694;BME280;49839;51.798;10.954;2023-05-11T09:14:23;98912.81;;;13.92;nan
63694;BME280;49839;51.798;10.954;2023-05-11T09:16:53;98907.69;;;14.02;nan
63694;BME280;49839;51.798;10.954;2023-05-11T09:19:22;98912.75;;;14.18;nan
63694;BME280;49839;51.798;10.954;2023-05-11T09:21:51;98911.84;;;14.30;nan
63694;BME280;49839;51.798;10.954;2023-05-11T09:24:19;98905.34;;;14.34;nan
63694;BME280;49839;51.798;10.954;2023-05-11T09:26:47;59032.25;;;-144.36;100.00
63694;BME280;49839;51.798;10.954;2023-05-11T09:29:18;98912.69;;;14.54;nan
63694;BME280;49839;51.798;10.954;2023-05-11T09:31:46;98904.28;;;14.60;nan
63694;BME280;49839;51.798;10.954;2023-05-11T09:34:15;98911.00;;;14.77;nan
63694;BME280;49839;51.798;10.954;2023-05-11T09:36:45;98909.84;;;15.04;nan
63694;BME280;49839;51.798;10.954;2023-05-11T09:39:13;98903.97;;;15.23;nan
63694;BME280;49839;51.798;10.954;2023-05-11T09:41:42;98907.25;;;15.37;nan
63694;BME280;49839;51.798;10.954;2023-05-11T09:44:12;98904.13;;;15.55;nan
63694;BME280;49839;51.798;10.954;2023-05-11T09:46:40;98905.84;;;15.67;nan
63694;BME280;49839;51.798;10.954;2023-05-11T09:49:09;98912.59;;;15.60;nan
63694;BME280;49839;51.798;10.954;2023-05-11T09:51:38;98913.66;;;15.57;nan
63694;BME280;49839;51.798;10.954;2023-05-11T09:54:18;98912.25;;;15.64;nan
63694;BME280;49839;51.798;10.954;2023-05-11T09:56:48;98912.00;;;15.67;nan
63694;BME280;49839;51.798;10.954;2023-05-11T09:59:17;98910.44;;;15.76;nan
63694;BME280;49839;51.798;10.954;2023-05-11T10:02:17;98914.41;;;15.82;nan
63694;BME280;49839;51.798;10.954;2023-05-11T10:04:46;98907.28;;;15.82;nan
63694;BME280;49839;51.798;10.954;2023-05-11T10:07:24;98904.63;;;15.93;nan
63694;BME280;49839;51.798;10.954;2023-05-11T10:09:57;98902.81;;;15.94;nan
63694;BME280;49839;51.798;10.954;2023-05-11T10:12:28;98907.41;;;15.92;nan
63694;BME280;49839;51.798;10.954;2023-05-11T10:15:01;98897.38;;;15.95;nan
63694;BME280;49839;51.798;10.954;2023-05-11T10:17:29;98899.81;;;15.87;nan
63694;BME280;49839;51.798;10.954;2023-05-11T10:19:57;98895.22;;;15.78;nan
63694;BME280;49839;51.798;10.954;2023-05-11T10:22:26;98899.31;;;15.71;nan
63694;BME280;49839;51.798;10.954;2023-05-11T10:24:57;98893.78;;;15.74;nan
63694;BME280;49839;51.798;10.954;2023-05-11T10:27:26;98889.31;;;15.86;nan
63694;BME280;49839;51.798;10.954;2023-05-11T10:29:55;98884.69;;;15.88;nan
63694;BME280;49839;51.798;10.954;2023-05-11T10:32:24;98887.00;;;15.92;nan
63694;BME280;49839;51.798;10.954;2023-05-11T10:34:52;98893.75;;;15.96;nan
63694;BME280;49839;51.798;10.954;2023-05-11T10:37:22;98885.16;;;16.04;nan
63694;BME280;49839;51.798;10.954;2023-05-11T10:39:51;98888.66;;;16.05;nan
63694;BME280;49839;51.798;10.954;2023-05-11T10:42:30;98886.00;;;16.05;nan
63694;BME280;49839;51.798;10.954;2023-05-11T10:45:13;98886.47;;;16.10;nan
63694;BME280;49839;51.798;10.954;2023-05-11T10:48:16;98883.47;;;16.03;nan
63694;BME280;49839;51.798;10.954;2023-05-11T10:54:06;98882.22;;;16.18;nan
63694;BME280;49839;51.798;10.954;2023-05-11T10:56:48;98884.16;;;16.16;nan
63694;BME280;49839;51.798;10.954;2023-05-11T10:59:33;98885.03;;;16.17;nan
63694;BME280;49839;51.798;10.954;2023-05-11T11:02:07;98884.28;;;16.15;nan
63694;BME280;49839;51.798;10.954;2023-05-11T11:04:43;98880.28;;;16.20;nan
63694;BME280;49839;51.798;10.954;2023-05-11T11:07:12;98884.13;;;16.28;nan
63694;BME280;49839;51.798;10.954;2023-05-11T11:09:51;98882.22;;;16.30;nan
63694;BME280;49839;51.798;10.954;2023-05-11T11:12:20;98881.81;;;16.34;nan
63694;BME280;49839;51.798;10.954;2023-05-11T11:14:57;98880.09;;;16.44;nan
63694;BME280;49839;51.798;10.954;2023-05-11T11:17:29;98882.81;;;16.54;nan
63694;BME280;49839;51.798;10.954;2023-05-11T11:19:58;98880.25;;;16.64;nan
63694;BME280;49839;51.798;10.954;2023-05-11T11:22:44;98883.94;;;16.84;nan
63694;BME280;49839;51.798;10.954;2023-05-11T11:25:14;98882.19;;;16.94;nan
63694;BME280;49839;51.798;10.954;2023-05-11T11:27:56;98880.88;;;17.09;nan
63694;BME280;49839;51.798;10.954;2023-05-11T11:30:27;98882.75;;;17.18;nan
63694;BME280;49839;51.798;10.954;2023-05-11T11:35:57;98883.91;;;17.56;nan
63694;BME280;49839;51.798;10.954;2023-05-11T11:38:24;98881.00;;;17.59;nan
63694;BME280;49839;51.798;10.954;2023-05-11T11:40:54;98884.50;;;17.59;nan
63694;BME280;49839;51.798;10.954;2023-05-11T11:43:24;98877.59;;;17.57;nan
63694;BME280;49839;51.798;10.954;2023-05-11T11:45:53;98884.06;;;17.54;nan
63694;BME280;49839;51.798;10.954;2023-05-11T11:48:30;98883.91;;;17.46;nan
63694;BME280;49839;51.798;10.954;2023-05-11T11:51:01;98882.59;;;17.41;nan
63694;BME280;49839;51.798;10.954;2023-05-11T11:54:02;98883.59;;;17.40;nan
63694;BME280;49839;51.798;10.954;2023-05-11T11:56:38;98891.56;;;17.40;nan
63694;BME280;49839;51.798;10.954;2023-05-11T11:59:06;98888.31;;;17.36;nan
63694;BME280;49839;51.798;10.954;2023-05-11T12:01:38;98886.66;;;17.14;nan
63694;BME280;49839;51.798;10.954;2023-05-11T12:04:22;98888.88;;;17.09;nan
63694;BME280;49839;51.798;10.954;2023-05-11T12:06:55;98888.34;;;17.15;nan
63694;BME280;49839;51.798;10.954;2023-05-11T12:09:24;98886.78;;;17.33;nan
63694;BME280;49839;51.798;10.954;2023-05-11T12:11:52;98885.59;;;17.57;nan
63694;BME280;49839;51.798;10.954;2023-05-11T12:14:20;98888.81;;;17.81;nan
63694;BME280;49839;51.798;10.954;2023-05-11T12:17:04;98882.16;;;18.06;nan
63694;BME280;49839;51.798;10.954;2023-05-11T12:19:33;98886.00;;;18.33;nan
63694;BME280;49839;51.798;10.954;2023-05-11T12:22:02;98887.69;;;18.63;nan
63694;BME280;49839;51.798;10.954;2023-05-11T12:24:29;98885.19;;;18.71;nan
63694;BME280;49839;51.798;10.954;2023-05-11T12:27:01;98891.94;;;18.75;nan
63694;BME280;49839;51.798;10.954;2023-05-11T12:29:30;98885.22;;;18.81;nan
63694;BME280;49839;51.798;10.954;2023-05-11T12:31:58;98885.06;;;18.82;nan
63694;BME280;49839;51.798;10.954;2023-05-11T12:34:27;98887.31;;;18.77;nan
63694;BME280;49839;51.798;10.954;2023-05-11T12:36:55;98883.34;;;18.52;nan
63694;BME280;49839;51.798;10.954;2023-05-11T12:39:26;98881.34;;;18.54;nan
63694;BME280;49839;51.798;10.954;2023-05-11T12:41:55;98876.06;;;18.74;nan
63694;BME280;49839;51.798;10.954;2023-05-11T12:44:24;98877.88;;;18.73;nan
63694;BME280;49839;51.798;10.954;2023-05-11T12:46:53;98878.72;;;18.64;nan
63694;BME280;49839;51.798;10.954;2023-05-11T12:49:22;98878.72;;;18.45;nan
63694;BME280;49839;51.798;10.954;2023-05-11T12:52:01;98878.97;;;18.32;nan
63694;BME280;49839;51.798;10.954;2023-05-11T12:54:34;98875.75;;;18.38;nan
63694;BME280;49839;51.798;10.954;2023-05-11T12:57:04;98880.69;;;18.43;nan
63694;BME280;49839;51.798;10.954;2023-05-11T12:59:33;98878.56;;;18.36;nan
63694;BME280;49839;51.798;10.954;2023-05-11T13:02:20;98876.31;;;18.32;nan
63694;BME280;49839;51.798;10.954;2023-05-11T13:04:48;98869.72;;;18.46;nan
63694;BME280;49839;51.798;10.954;2023-05-11T13:07:26;98872.16;;;18.68;nan
63694;BME280;49839;51.798;10.954;2023-05-11T13:09:55;98867.09;;;18.75;nan
63694;BME280;49839;51.798;10.954;2023-05-11T13:12:23;98864.41;;;18.84;nan
63694;BME280;49839;51.798;10.954;2023-05-11T13:15:04;98856.66;;;19.01;nan
63694;BME280;49839;51.798;10.954;2023-05-11T13:17:33;98853.00;;;19.02;nan
63694;BME280;49839;51.798;10.954;2023-05-11T13:20:17;98861.53;;;19.05;nan
63694;BME280;49839;51.798;10.954;2023-05-11T13:22:47;98852.84;;;19.03;nan
63694;BME280;49839;51.798;10.954;2023-05-11T13:25:17;98851.88;;;18.94;nan
63694;BME280;49839;51.798;10.954;2023-05-11T13:27:46;98848.66;;;19.01;nan
63694;BME280;49839;51.798;10.954;2023-05-11T13:30:14;98852.84;;;19.03;nan
63694;BME280;49839;51.798;10.954;2023-05-11T13:32:42;98850.00;;;19.14;nan
63694;BME280;49839;51.798;10.954;2023-05-11T13:35:09;98837.91;;;19.10;nan